Time;durP1;ratioP1;P1;durP2;ratioP2;P2;SDS_P1;SDS_P2;PMS_P1;PMS_P2;Temp;Humidity;BMP_temperature;BMP_pressure;BME280_temperature;BME280_humidity;BME280_pressure;Samples;Min_cycle;Max_cycle;Signal;HPM_P1;HPM_P2
2023/05/14 00:01:57;;;;;;;3.03;2.20;;;;;;;14.37;63.62;99995.16;4494592;31;33510;-71
2023/05/14 00:04:25;;;;;;;6.90;4.53;;;;;;;14.33;64.75;99993.72;4481884;31;33224;-67
2023/05/14 00:06:53;;;;;;;12.20;4.05;;;;;;;14.43;65.09;99985.69;4491677;31;33521;-67
2023/05/14 00:09:20;;;;;;;6.03;3.92;;;;;;;14.42;65.44;99975.94;4494578;31;33848;-67
2023/05/14 00:11:48;;;;;;;7.70;4.10;;;;;;;14.47;65.23;99981.75;4486234;31;33134;-68
2023/05/14 00:14:15;;;;;;;5.35;3.47;;;;;;;14.34;65.63;99978.41;4494643;31;33483;-67
2023/05/14 00:16:43;;;;;;;6.68;2.83;;;;;;;14.20;65.79;99983.16;4495420;31;34992;-67
2023/05/14 00:19:11;;;;;;;8.82;3.83;;;;;;;14.08;65.98;99973.44;4495140;31;34093;-67
2023/05/14 00:21:38;;;;;;;6.82;3.53;;;;;;;13.90;66.52;99977.69;4482367;31;33689;-68
2023/05/14 00:24:06;;;;;;;8.10;3.05;;;;;;;14.07;65.70;99974.44;4486723;31;32113;-69
2023/05/14 00:26:33;;;;;;;4.82;2.97;;;;;;;14.25;65.44;99976.53;4482668;31;33931;-67
2023/05/14 00:29:01;;;;;;;4.97;3.12;;;;;;;14.27;65.01;99975.41;4487089;31;32839;-67
2023/05/14 00:31:28;;;;;;;7.75;3.37;;;;;;;13.94;65.54;99963.03;4492514;31;32778;-68
2023/05/14 00:33:56;;;;;;;3.33;2.53;;;;;;;13.89;65.88;99962.53;4494068;31;34839;-67
2023/05/14 00:36:24;;;;;;;9.18;3.42;;;;;;;13.85;66.18;99961.09;4489380;31;34628;-69
2023/05/14 00:38:51;;;;;;;6.97;3.72;;;;;;;14.23;64.91;99962.34;4495103;31;32476;-66
2023/05/14 00:41:19;;;;;;;5.90;3.83;;;;;;;13.97;65.47;99958.22;4493496;31;32207;-67
2023/05/14 00:43:47;;;;;;;4.40;3.10;;;;;;;14.10;64.99;99949.97;4494940;31;34317;-66
2023/05/14 00:46:15;;;;;;;4.87;3.47;;;;;;;13.62;66.30;99950.47;4495280;31;34923;-68
2023/05/14 00:48:44;;;;;;;5.55;3.08;;;;;;;13.36;67.61;99947.25;4495640;31;33865;-69
2023/05/14 00:51:11;;;;;;;4.30;2.30;;;;;;;13.54;67.07;99942.16;4487857;31;33865;-68
2023/05/14 00:53:39;;;;;;;4.15;2.53;;;;;;;13.66;66.73;99945.66;4484987;31;33060;-69
2023/05/14 00:56:07;;;;;;;4.57;3.42;;;;;;;13.50;66.79;99938.03;4493585;31;32765;-68
2023/05/14 00:58:34;;;;;;;4.03;3.03;;;;;;;13.56;66.87;99929.47;4496236;31;32732;-68
2023/05/14 01:01:02;;;;;;;4.05;3.28;;;;;;;13.42;67.23;99936.00;4497060;31;33934;-69
2023/05/14 01:03:31;;;;;;;6.30;4.00;;;;;;;13.42;67.35;99940.53;4481618;31;31823;-67
2023/05/14 01:06:10;;;;;;;4.10;3.05;;;;;;;13.41;67.08;99925.37;4488989;31;33749;-67
2023/05/14 01:08:41;;;;;;;4.78;3.12;;;;;;;13.55;66.46;99926.88;4487690;31;32520;-69
2023/05/14 01:11:23;;;;;;;5.62;3.50;;;;;;;13.84;65.42;99935.19;4496474;31;32821;-68
2023/05/14 01:13:58;;;;;;;4.95;2.65;;;;;;;13.72;65.46;99934.41;4496121;31;34199;-69
2023/05/14 01:16:26;;;;;;;4.72;2.90;;;;;;;13.77;65.45;99925.91;4493023;31;33820;-68
2023/05/14 01:18:56;;;;;;;5.82;2.60;;;;;;;13.91;64.79;99921.06;4489573;31;33828;-68
2023/05/14 01:21:39;;;;;;;5.95;3.37;;;;;;;13.72;65.21;99916.41;4494974;31;35118;-68
2023/05/14 01:24:08;;;;;;;2.40;2.05;;;;;;;13.57;65.77;99911.47;4496787;31;32435;-71
2023/05/14 01:26:36;;;;;;;3.45;2.62;;;;;;;13.81;64.64;99916.63;4492755;31;33501;-68
2023/05/14 01:29:17;;;;;;;5.45;2.70;;;;;;;13.57;65.54;99906.09;4495786;31;34421;-71
2023/05/14 01:31:48;;;;;;;5.60;3.37;;;;;;;13.49;65.81;99913.00;4488791;31;34895;-70
2023/05/14 01:34:19;;;;;;;4.18;1.80;;;;;;;13.43;65.80;99907.28;4481277;31;32628;-68
2023/05/14 01:36:47;;;;;;;5.75;2.37;;;;;;;13.33;66.51;99901.81;4482890;31;34174;-67
2023/05/14 01:39:15;;;;;;;2.22;1.40;;;;;;;13.55;65.38;99902.69;4493921;31;33881;-68
2023/05/14 01:41:44;;;;;;;4.35;3.35;;;;;;;13.67;64.73;99897.13;4487968;31;33392;-68
2023/05/14 01:44:11;;;;;;;5.07;3.62;;;;;;;13.53;65.59;99889.38;4493386;31;34579;-67
2023/05/14 01:46:39;;;;;;;4.47;2.42;;;;;;;13.12;66.60;99882.91;4492178;31;32577;-68
2023/05/14 01:49:06;;;;;;;3.58;2.70;;;;;;;13.51;65.70;99886.84;4494386;31;35505;-68
2023/05/14 01:51:34;;;;;;;4.00;2.15;;;;;;;13.20;66.30;99875.09;4488247;31;33538;-68
2023/05/14 01:54:02;;;;;;;4.10;1.42;;;;;;;13.20;66.69;99874.22;4496110;31;34335;-68
2023/05/14 01:56:30;;;;;;;1.98;1.55;;;;;;;13.30;66.07;99874.34;4492308;31;32238;-68
2023/05/14 01:58:57;;;;;;;5.97;2.80;;;;;;;13.73;64.69;99861.63;4490580;31;33788;-68
2023/05/14 02:01:25;;;;;;;5.57;3.03;;;;;;;13.87;63.98;99867.69;4492516;31;33851;-68
2023/05/14 02:03:53;;;;;;;7.05;3.47;;;;;;;13.60;64.45;99871.72;4481370;31;31947;-69
2023/05/14 02:06:21;;;;;;;2.25;2.05;;;;;;;13.72;64.12;99865.31;4491686;31;33807;-70
2023/05/14 02:08:48;;;;;;;1.98;1.50;;;;;;;13.90;63.68;99864.69;4496237;31;33847;-67
2023/05/14 02:11:16;;;;;;;3.80;2.53;;;;;;;13.99;63.08;99861.22;4493893;31;33503;-67
2023/05/14 02:13:44;;;;;;;5.78;2.50;;;;;;;13.74;63.76;99862.50;4486270;31;33078;-68
2023/05/14 02:16:11;;;;;;;4.78;2.70;;;;;;;13.30;65.20;99864.44;4490421;31;34772;-68
2023/05/14 02:18:39;;;;;;;3.05;2.15;;;;;;;13.57;64.45;99873.84;4498430;31;34723;-68
2023/05/14 02:21:07;;;;;;;4.05;2.62;;;;;;;13.78;63.68;99863.94;4496040;31;33599;-68
2023/05/14 02:23:35;;;;;;;4.15;2.28;;;;;;;14.07;62.45;99857.88;4498116;31;32764;-68
2023/05/14 02:26:10;;;;;;;4.90;2.85;;;;;;;13.54;64.09;99857.97;4487848;31;33521;-68
2023/05/14 02:28:37;;;;;;;4.10;2.95;;;;;;;13.88;62.83;99864.84;4489594;31;34051;-68
2023/05/14 02:31:05;;;;;;;5.40;3.05;;;;;;;13.67;63.68;99855.91;4491683;31;33768;-68
2023/05/14 02:33:32;;;;;;;3.12;2.28;;;;;;;13.73;63.34;99856.25;4494501;31;33526;-69
2023/05/14 02:36:00;;;;;;;4.57;2.78;;;;;;;13.75;63.37;99859.66;4490784;31;34448;-69
2023/05/14 02:38:27;;;;;;;3.40;1.83;;;;;;;13.84;63.33;99862.56;4490506;31;33977;-68
2023/05/14 02:40:55;;;;;;;3.55;2.78;;;;;;;13.97;62.66;99855.13;4496857;31;32334;-67
2023/05/14 02:43:23;;;;;;;1.70;1.60;;;;;;;13.86;63.12;99861.41;4493924;31;32963;-67
2023/05/14 02:45:51;;;;;;;3.45;2.42;;;;;;;14.06;62.20;99856.13;4497017;31;32133;-68
2023/05/14 02:48:19;;;;;;;4.10;2.83;;;;;;;13.83;62.99;99863.53;4487985;31;35095;-70
2023/05/14 02:50:48;;;;;;;2.45;2.25;;;;;;;13.90;62.66;99857.50;4495498;31;33857;-67
2023/05/14 02:53:16;;;;;;;2.62;1.75;;;;;;;13.66;63.79;99856.91;4497797;31;33142;-67
2023/05/14 02:55:43;;;;;;;3.95;2.70;;;;;;;13.82;63.31;99845.69;4496105;31;32664;-67
2023/05/14 02:58:11;;;;;;;3.17;2.03;;;;;;;13.86;62.90;99856.03;4488129;31;34085;-66
2023/05/14 03:00:38;;;;;;;3.05;2.22;;;;;;;13.73;63.21;99850.88;4490519;31;34092;-67
2023/05/14 03:03:07;;;;;;;2.72;2.28;;;;;;;13.91;62.68;99858.34;4483316;31;34669;-68
2023/05/14 03:05:35;;;;;;;7.65;2.97;;;;;;;14.01;62.61;99843.09;4485211;31;34841;-67
2023/05/14 03:08:02;;;;;;;4.57;2.72;;;;;;;13.85;63.26;99842.72;4495108;31;34021;-69
2023/05/14 03:10:31;;;;;;;3.97;2.65;;;;;;;13.70;63.39;99843.06;4488534;31;33694;-68
2023/05/14 03:12:59;;;;;;;6.68;2.85;;;;;;;13.50;64.18;99841.25;4486796;31;32244;-67
2023/05/14 03:15:26;;;;;;;5.47;3.65;;;;;;;13.83;63.31;99845.53;4496554;31;33994;-67
2023/05/14 03:17:54;;;;;;;4.60;2.70;;;;;;;13.75;63.44;99850.75;4491016;31;34899;-68
2023/05/14 03:20:24;;;;;;;4.87;2.67;;;;;;;13.52;64.10;99850.03;4491791;31;33781;-67
2023/05/14 03:22:53;;;;;;;4.75;2.62;;;;;;;13.92;62.93;99849.28;4496587;31;34300;-69
2023/05/14 03:25:21;;;;;;;6.75;3.28;;;;;;;13.80;63.58;99845.81;4495278;31;34680;-67
2023/05/14 03:27:48;;;;;;;2.40;1.80;;;;;;;13.62;64.06;99837.50;4492886;31;34068;-67
2023/05/14 03:30:16;;;;;;;2.53;2.08;;;;;;;13.69;63.70;99832.44;4494473;31;34651;-67
2023/05/14 03:32:44;;;;;;;5.65;2.70;;;;;;;13.84;63.23;99833.81;4495640;31;34447;-67
2023/05/14 03:35:11;;;;;;;6.60;3.75;;;;;;;13.83;63.31;99833.94;4490652;31;34830;-68
2023/05/14 03:37:39;;;;;;;4.18;2.25;;;;;;;13.81;63.45;99831.38;4493899;31;34954;-67
2023/05/14 03:40:07;;;;;;;2.53;1.65;;;;;;;13.89;63.22;99836.09;4492425;31;33865;-67
2023/05/14 03:42:35;;;;;;;4.65;2.55;;;;;;;13.62;64.08;99839.34;4496131;31;34587;-67
2023/05/14 03:45:03;;;;;;;4.32;3.47;;;;;;;13.64;63.79;99837.34;4490390;31;35051;-67
2023/05/14 03:47:31;;;;;;;28.90;3.22;;;;;;;13.89;63.31;99838.78;4492525;31;34810;-68
2023/05/14 03:49:59;;;;;;;2.95;2.25;;;;;;;13.67;64.02;99837.09;4490418;31;33010;-68
2023/05/14 03:52:27;;;;;;;5.72;2.67;;;;;;;13.63;63.87;99831.13;4494831;31;33476;-69
2023/05/14 03:54:54;;;;;;;4.62;3.20;;;;;;;13.93;63.18;99824.06;4489381;31;33992;-67
2023/05/14 03:57:22;;;;;;;4.53;2.42;;;;;;;13.12;65.45;99825.63;4493195;31;33847;-68
2023/05/14 03:59:49;;;;;;;4.12;2.17;;;;;;;13.36;64.74;99822.75;4495180;31;33652;-67
2023/05/14 04:02:18;;;;;;;4.00;1.70;;;;;;;13.69;63.70;99825.22;4487287;31;33320;-67
2023/05/14 04:04:46;;;;;;;4.78;2.20;;;;;;;13.53;64.31;99822.16;4495663;31;33761;-67
2023/05/14 04:07:17;;;;;;;3.85;2.30;;;;;;;13.49;64.40;99826.09;4484174;31;34094;-67
2023/05/14 04:09:44;;;;;;;3.08;2.42;;;;;;;13.58;63.83;99828.00;4493538;31;34718;-72
2023/05/14 04:12:12;;;;;;;2.80;2.35;;;;;;;13.41;64.31;99825.87;4496226;31;33113;-66
2023/05/14 04:14:40;;;;;;;5.57;2.47;;;;;;;13.37;64.38;99821.75;4494637;31;33612;-66
2023/05/14 04:17:07;;;;;;;6.93;2.90;;;;;;;13.74;63.38;99824.84;4488844;31;33836;-66
2023/05/14 04:19:35;;;;;;;2.75;2.15;;;;;;;13.70;63.08;99824.22;4492563;31;33647;-64
2023/05/14 04:22:03;;;;;;;16.55;2.53;;;;;;;13.66;63.24;99814.72;4490897;31;33223;-65
2023/05/14 04:24:30;;;;;;;3.65;2.75;;;;;;;13.77;62.76;99813.78;4487176;31;35040;-64
2023/05/14 04:26:58;;;;;;;5.00;3.03;;;;;;;13.76;62.64;99817.47;4489331;31;33606;-64
2023/05/14 04:29:26;;;;;;;2.40;1.77;;;;;;;13.81;62.33;99809.03;4496395;31;34044;-64
2023/05/14 04:31:53;;;;;;;3.28;2.35;;;;;;;13.79;62.43;99814.53;4487924;31;36877;-64
2023/05/14 04:34:21;;;;;;;4.60;2.75;;;;;;;13.66;62.46;99812.03;4486000;31;33747;-63
2023/05/14 04:36:49;;;;;;;5.25;2.58;;;;;;;13.19;64.34;99816.06;4495297;31;35274;-63
2023/05/14 04:39:17;;;;;;;3.10;1.95;;;;;;;13.57;62.86;99809.28;4485591;31;34002;-63
2023/05/14 04:41:45;;;;;;;4.57;2.22;;;;;;;13.66;62.42;99819.25;4491878;31;33263;-65
2023/05/14 04:44:12;;;;;;;3.97;2.60;;;;;;;13.35;63.01;99821.03;4500393;31;32602;-63
2023/05/14 04:46:40;;;;;;;5.37;2.72;;;;;;;13.51;62.43;99824.09;4497923;31;33957;-64
2023/05/14 04:49:08;;;;;;;2.97;1.75;;;;;;;13.43;62.64;99822.09;4500456;31;33769;-64
2023/05/14 04:51:35;;;;;;;4.37;2.80;;;;;;;13.51;62.70;99818.72;4497681;31;33131;-63
2023/05/14 04:54:02;;;;;;;2.62;1.83;;;;;;;13.23;63.34;99826.44;4498966;31;33932;-63
2023/05/14 04:56:30;;;;;;;2.33;1.77;;;;;;;13.56;62.58;99815.66;4498354;31;34893;-65
2023/05/14 04:58:58;;;;;;;7.47;2.65;;;;;;;13.49;62.76;99815.34;4498758;31;34823;-63
2023/05/14 05:01:25;;;;;;;3.53;1.85;;;;;;;13.63;62.57;99812.31;4497165;31;33283;-65
2023/05/14 05:03:53;;;;;;;3.25;2.53;;;;;;;13.24;63.32;99812.03;4492056;31;33464;-64
2023/05/14 05:06:21;;;;;;;4.70;2.58;;;;;;;13.52;62.70;99812.41;4483124;31;33755;-63
2023/05/14 05:08:48;;;;;;;2.17;1.55;;;;;;;13.43;62.92;99810.50;4496590;31;34504;-66
2023/05/14 05:11:16;;;;;;;6.22;1.95;;;;;;;13.76;62.22;99812.09;4497042;31;31826;-63
2023/05/14 05:13:44;;;;;;;3.08;2.35;;;;;;;13.66;62.18;99808.50;4499578;31;33589;-63
2023/05/14 05:16:11;;;;;;;1.75;1.42;;;;;;;13.66;62.43;99808.50;4498906;31;33842;-63
2023/05/14 05:18:39;;;;;;;2.72;1.87;;;;;;;13.37;63.95;99806.47;4495780;31;33548;-65
2023/05/14 05:21:06;;;;;;;4.10;3.35;;;;;;;13.35;63.87;99812.97;4494730;31;31971;-62
2023/05/14 05:23:34;;;;;;;3.42;1.77;;;;;;;13.33;63.73;99802.34;4488352;31;34769;-65
2023/05/14 05:26:02;;;;;;;1.52;1.42;;;;;;;13.75;62.35;99803.19;4497375;31;34127;-67
2023/05/14 05:28:29;;;;;;;1.98;1.23;;;;;;;13.96;61.98;99800.47;4497013;31;34007;-65
2023/05/14 05:30:57;;;;;;;4.97;3.28;;;;;;;13.71;62.23;99803.59;4490662;31;33255;-64
2023/05/14 05:33:24;;;;;;;2.90;1.95;;;;;;;13.49;62.41;99804.59;4489839;31;35028;-66
2023/05/14 05:35:52;;;;;;;4.35;2.75;;;;;;;13.46;62.46;99797.63;4487205;31;33740;-65
2023/05/14 05:38:19;;;;;;;3.80;2.85;;;;;;;13.44;62.44;99807.66;4491430;31;34901;-64
2023/05/14 05:40:47;;;;;;;2.78;2.00;;;;;;;13.30;63.82;99809.84;4499548;31;32941;-64
2023/05/14 05:43:14;;;;;;;2.70;1.83;;;;;;;13.41;63.09;99802.53;4502125;31;33968;-64
2023/05/14 05:45:42;;;;;;;5.60;2.50;;;;;;;13.41;63.03;99799.00;4495355;31;33975;-64
2023/05/14 05:48:10;;;;;;;4.78;2.92;;;;;;;13.30;63.96;99807.16;4487182;31;34762;-68
2023/05/14 05:50:37;;;;;;;3.22;2.37;;;;;;;12.97;65.03;99801.78;4497339;31;33681;-67
2023/05/14 05:53:05;;;;;;;7.03;1.95;;;;;;;12.99;64.72;99813.22;4484854;31;34960;-64
2023/05/14 05:55:33;;;;;;;3.15;2.08;;;;;;;13.38;63.75;99807.31;4492635;31;33880;-65
2023/05/14 05:58:00;;;;;;;3.53;1.70;;;;;;;13.40;64.21;99816.13;4500648;31;34115;-64
2023/05/14 06:00:28;;;;;;;2.75;2.03;;;;;;;13.72;63.04;99816.03;4496205;31;33563;-64
2023/05/14 06:02:55;;;;;;;2.58;1.95;;;;;;;13.71;63.41;99811.66;4493200;31;33662;-67
2023/05/14 06:05:23;;;;;;;6.05;2.65;;;;;;;13.43;63.29;99807.81;4499523;31;33983;-67
2023/05/14 06:07:52;;;;;;;4.37;2.50;;;;;;;13.67;63.23;99820.97;4486209;31;34001;-66
2023/05/14 06:10:20;;;;;;;11.57;2.60;;;;;;;13.72;63.39;99822.28;4485977;31;33341;-64
2023/05/14 06:12:47;;;;;;;4.93;2.53;;;;;;;13.77;63.25;99824.53;4497320;31;33873;-63
2023/05/14 06:15:15;;;;;;;6.18;2.65;;;;;;;13.78;63.28;99826.28;4495050;31;34916;-63
2023/05/14 06:17:43;;;;;;;3.72;1.83;;;;;;;13.91;63.50;99831.44;4486907;31;35151;-65
2023/05/14 06:20:11;;;;;;;2.05;1.73;;;;;;;13.99;62.90;99823.53;4486930;31;34419;-65
2023/05/14 06:22:38;;;;;;;2.33;1.85;;;;;;;14.15;63.01;99825.72;4494538;31;33394;-66
2023/05/14 06:25:06;;;;;;;3.12;2.25;;;;;;;14.11;63.08;99837.75;4498972;31;33928;-65
2023/05/14 06:27:34;;;;;;;5.68;2.62;;;;;;;13.99;63.43;99832.44;4497997;31;33881;-66
2023/05/14 06:30:01;;;;;;;3.55;2.45;;;;;;;14.18;63.54;99823.59;4491482;31;33459;-65
2023/05/14 06:32:29;;;;;;;4.57;2.83;;;;;;;14.17;63.39;99823.75;4486829;31;33858;-65
2023/05/14 06:34:57;;;;;;;6.12;3.28;;;;;;;14.08;64.38;99825.41;4495308;31;33712;-65
2023/05/14 06:37:24;;;;;;;6.55;4.07;;;;;;;14.15;64.60;99825.72;4495727;31;32061;-65
2023/05/14 06:39:52;;;;;;;5.10;2.20;;;;;;;14.00;64.42;99825.25;4485838;31;33129;-67
2023/05/14 06:42:21;;;;;;;5.53;3.10;;;;;;;14.20;64.10;99812.72;4488524;31;34870;-66
2023/05/14 06:44:49;;;;;;;4.78;2.83;;;;;;;14.12;64.31;99820.63;4499256;31;33882;-66
2023/05/14 06:47:17;;;;;;;3.83;2.55;;;;;;;13.91;65.33;99810.75;4489658;31;32749;-67
2023/05/14 06:49:45;;;;;;;14.55;4.25;;;;;;;13.76;66.06;99814.78;4490055;31;31902;-66
2023/05/14 06:52:12;;;;;;;15.13;3.83;;;;;;;14.12;65.17;99808.00;4496988;31;33780;-65
2023/05/14 06:54:40;;;;;;;5.00;2.78;;;;;;;14.06;64.88;99808.56;4498271;31;35178;-66
2023/05/14 06:57:07;;;;;;;7.93;3.58;;;;;;;13.88;65.39;99808.34;4495181;31;34703;-66
2023/05/14 06:59:35;;;;;;;4.75;2.17;;;;;;;13.89;65.74;99806.50;4495053;31;31906;-65
2023/05/14 07:02:02;;;;;;;4.03;2.67;;;;;;;13.69;66.72;99797.47;4496143;31;34471;-65
2023/05/14 07:04:30;;;;;;;7.45;4.05;;;;;;;13.52;67.75;99799.78;4489714;31;34004;-68
2023/05/14 07:06:57;;;;;;;2.03;1.77;;;;;;;13.47;67.72;99796.63;4484427;31;33938;-67
2023/05/14 07:09:25;;;;;;;5.35;3.30;;;;;;;13.86;66.62;99787.94;4489452;31;31678;-66
2023/05/14 07:11:52;;;;;;;6.43;3.50;;;;;;;13.94;66.85;99780.91;4492770;31;33765;-66
2023/05/14 07:14:20;;;;;;;4.75;3.10;;;;;;;13.56;68.24;99778.88;4498989;31;34958;-66
2023/05/14 07:16:48;;;;;;;4.75;2.97;;;;;;;13.79;67.43;99784.94;4495090;31;33941;-65
2023/05/14 07:19:15;;;;;;;4.47;3.08;;;;;;;14.06;66.79;99780.78;4487447;31;33256;-66
2023/05/14 07:21:43;;;;;;;6.15;2.62;;;;;;;14.04;66.60;99772.00;4487023;31;34872;-66
2023/05/14 07:24:11;;;;;;;2.37;1.83;;;;;;;14.02;67.10;99773.97;4498825;31;32619;-66
2023/05/14 07:26:38;;;;;;;2.78;2.30;;;;;;;14.12;66.87;99773.00;4492765;31;33738;-65
2023/05/14 07:29:06;;;;;;;3.95;2.50;;;;;;;13.83;67.65;99774.75;4488970;31;33423;-65
2023/05/14 07:31:35;;;;;;;6.57;3.65;;;;;;;13.82;67.57;99768.53;4491588;31;33844;-64
2023/05/14 07:34:02;;;;;;;6.12;3.03;;;;;;;14.03;67.16;99771.16;4496575;31;32855;-65
2023/05/14 07:36:30;;;;;;;4.25;3.30;;;;;;;14.50;65.35;99768.72;4492557;31;34114;-66
2023/05/14 07:38:58;;;;;;;4.78;3.37;;;;;;;14.32;66.60;99767.72;4492192;31;34435;-68
2023/05/14 07:41:25;;;;;;;5.20;3.25;;;;;;;14.32;65.77;99767.72;4493967;31;33535;-66
2023/05/14 07:43:53;;;;;;;4.05;3.05;;;;;;;14.57;65.99;99767.19;4494619;31;35474;-66
2023/05/14 07:46:20;;;;;;;7.12;3.58;;;;;;;14.25;66.58;99763.84;4485780;31;34260;-66
2023/05/14 07:48:48;;;;;;;6.28;2.92;;;;;;;14.68;65.57;99756.31;4495651;31;34304;-68
2023/05/14 07:51:15;;;;;;;3.75;2.37;;;;;;;14.55;66.17;99750.34;4497945;31;33773;-67
2023/05/14 07:53:43;;;;;;;4.80;2.83;;;;;;;14.38;65.79;99753.66;4495523;31;33895;-65
2023/05/14 07:56:10;;;;;;;4.70;3.22;;;;;;;14.28;66.43;99747.41;4498121;31;34076;-66
2023/05/14 07:58:38;;;;;;;4.57;3.37;;;;;;;14.43;65.73;99754.12;4495843;31;33834;-66
2023/05/14 08:01:07;;;;;;;7.22;3.55;;;;;;;14.56;65.69;99745.81;4495325;31;33863;-66
2023/05/14 08:03:35;;;;;;;19.45;3.92;;;;;;;14.49;66.60;99745.47;4489962;31;34995;-68
2023/05/14 08:06:03;;;;;;;6.43;4.12;;;;;;;14.67;65.79;99749.22;4494597;31;33614;-68
2023/05/14 08:08:31;;;;;;;5.45;4.00;;;;;;;14.81;65.26;99742.56;4496162;31;33320;-66
2023/05/14 08:10:58;;;;;;;5.50;3.78;;;;;;;14.71;66.87;99735.47;4497379;31;33530;-65
2023/05/14 08:13:26;;;;;;;7.47;3.97;;;;;;;14.81;65.22;99734.47;4498450;31;33763;-66
2023/05/14 08:15:54;;;;;;;8.18;2.95;;;;;;;14.67;65.93;99727.69;4495673;31;33812;-66
2023/05/14 08:18:22;;;;;;;3.22;2.37;;;;;;;14.56;65.81;99717.03;4496534;31;34461;-65
2023/05/14 08:20:50;;;;;;;4.87;3.12;;;;;;;14.49;66.92;99725.78;4497427;31;34439;-65
2023/05/14 08:23:17;;;;;;;5.45;3.30;;;;;;;14.78;65.04;99723.12;4498824;31;33706;-66
2023/05/14 08:25:45;;;;;;;5.68;2.67;;;;;;;14.85;65.76;99713.47;4491969;31;34098;-65
2023/05/14 08:28:12;;;;;;;4.43;2.72;;;;;;;14.88;65.18;99713.19;4498232;31;35962;-66
2023/05/14 08:30:40;;;;;;;3.72;2.83;;;;;;;14.77;65.97;99710.66;4497126;31;34972;-68
2023/05/14 08:33:08;;;;;;;4.70;2.70;;;;;;;14.60;67.00;99710.34;4484103;31;34195;-69
2023/05/14 08:35:35;;;;;;;6.40;3.50;;;;;;;14.50;67.41;99708.62;4488647;31;33479;-65
2023/05/14 08:38:03;;;;;;;7.50;3.45;;;;;;;14.46;67.18;99705.38;4488991;31;33293;-66
2023/05/14 08:40:31;;;;;;;4.90;3.28;;;;;;;14.34;67.47;99699.25;4496637;31;33874;-66
2023/05/14 08:42:59;;;;;;;6.70;3.15;;;;;;;14.47;68.09;99695.44;4488603;31;33864;-65
2023/05/14 08:45:33;;;;;;;7.00;3.42;;;;;;;14.53;67.63;99695.75;4484334;31;34104;-65
2023/05/14 08:48:04;;;;;;;4.12;2.72;;;;;;;14.25;69.09;99693.84;4496030;31;31986;-66
2023/05/14 08:50:32;;;;;;;3.03;2.62;;;;;;;14.23;68.43;99695.84;4489691;31;33140;-65
2023/05/14 08:52:59;;;;;;;4.65;2.85;;;;;;;14.78;66.53;99693.50;4489167;31;33477;-66
2023/05/14 08:55:27;;;;;;;5.03;3.45;;;;;;;14.65;66.89;99696.47;4493379;31;33644;-66
2023/05/14 08:57:55;;;;;;;5.82;2.92;;;;;;;14.68;66.65;99702.44;4489270;31;32795;-66
2023/05/14 09:00:23;;;;;;;5.87;3.58;;;;;;;14.80;66.32;99699.56;4490647;31;32535;-66
2023/05/14 09:02:52;;;;;;;6.37;2.97;;;;;;;14.73;66.17;99687.69;4483886;31;33660;-66
2023/05/14 09:05:19;;;;;;;4.22;3.12;;;;;;;14.77;66.64;99694.50;4491654;31;33969;-67
2023/05/14 09:07:47;;;;;;;5.55;4.28;;;;;;;14.65;67.62;99708.09;4493330;31;33452;-67
2023/05/14 09:10:15;;;;;;;8.90;3.20;;;;;;;14.71;68.33;99703.16;4482597;31;33258;-66
2023/05/14 09:12:42;;;;;;;6.50;3.58;;;;;;;14.71;67.62;99708.53;4494815;31;33929;-65
2023/05/14 09:15:10;;;;;;;13.45;4.40;;;;;;;14.80;66.67;99695.06;4497731;31;34279;-65
2023/05/14 09:17:37;;;;;;;5.15;3.80;;;;;;;15.03;66.68;99695.59;4493664;31;33321;-65
2023/05/14 09:20:06;;;;;;;7.45;4.25;;;;;;;14.14;69.39;99693.00;4482669;31;36330;-67
2023/05/14 09:22:33;;;;;;;8.07;4.43;;;;;;;14.29;70.29;99692.59;4490476;31;33374;-68
2023/05/14 09:25:08;;;;;;;5.22;2.62;;;;;;;14.38;68.43;99689.94;4497295;31;32278;-66
2023/05/14 09:27:35;;;;;;;5.82;3.42;;;;;;;14.40;68.91;99677.16;4496251;31;32882;-68
2023/05/14 09:30:05;;;;;;;6.28;3.62;;;;;;;14.85;68.18;99664.97;4488911;31;33673;-66
2023/05/14 09:32:42;;;;;;;13.23;5.00;;;;;;;14.80;68.19;99668.13;4491040;31;33868;-66
2023/05/14 09:35:13;;;;;;;6.37;4.37;;;;;;;14.75;68.86;99665.00;4492050;31;34614;-66
2023/05/14 09:37:45;;;;;;;7.93;3.70;;;;;;;14.73;69.90;99675.06;4488062;31;33256;-66
2023/05/14 09:40:13;;;;;;;7.12;4.00;;;;;;;14.99;69.09;99669.94;4485808;31;34051;-64
2023/05/14 09:42:41;;;;;;;13.48;4.50;;;;;;;14.70;70.13;99652.94;4482983;31;34502;-67
2023/05/14 09:45:09;;;;;;;4.90;2.95;;;;;;;14.28;71.76;99653.19;4489362;31;35418;-66
2023/05/14 09:47:38;;;;;;;6.55;3.35;;;;;;;14.53;71.43;99644.59;4492284;31;33392;-65
2023/05/14 09:50:06;;;;;;;5.20;3.45;;;;;;;14.26;73.18;99645.28;4493723;31;32758;-67
2023/05/14 09:52:34;;;;;;;5.93;3.62;;;;;;;14.89;70.79;99645.69;4490635;31;34111;-66
2023/05/14 09:55:02;;;;;;;3.97;2.80;;;;;;;14.67;70.84;99638.78;4490975;31;34973;-66
2023/05/14 09:57:29;;;;;;;5.45;3.62;;;;;;;14.70;69.95;99631.38;4483785;31;33477;-66
2023/05/14 09:59:57;;;;;;;6.10;3.55;;;;;;;14.41;71.28;99630.41;4487188;31;33602;-66
2023/05/14 10:02:32;;;;;;;9.90;3.42;;;;;;;14.40;71.73;99615.22;4489473;31;33866;-65
2023/05/14 10:05:00;;;;;;;;;;;;;;;14.81;70.35;99604.31;4489361;31;35877;-66
2023/05/14 10:07:45;;;;;;;7.10;3.90;;;;;;;14.04;74.58;99603.31;4486773;31;34487;-66
2023/05/14 10:10:15;;;;;;;10.23;5.70;;;;;;;14.36;72.86;99602.19;4486687;31;33569;-66
2023/05/14 10:12:48;;;;;;;6.57;4.32;;;;;;;14.26;73.59;99593.28;4489569;31;34079;-67
2023/05/14 10:15:23;;;;;;;7.37;4.20;;;;;;;13.96;75.22;99585.19;4489856;31;33845;-67
2023/05/14 10:17:54;;;;;;;3.42;2.15;;;;;;;14.31;73.51;99570.31;4488430;31;32773;-66
2023/05/14 10:20:23;;;;;;;7.12;3.45;;;;;;;14.20;73.75;99560.53;4497314;31;33650;-65
2023/05/14 10:22:51;;;;;;;6.07;3.78;;;;;;;14.06;74.54;99544.84;4492762;31;35150;-65
2023/05/14 10:25:19;;;;;;;6.03;3.97;;;;;;;13.59;77.06;99541.09;4490897;31;34805;-65
2023/05/14 10:27:47;;;;;;;6.82;4.00;;;;;;;13.74;76.85;99548.63;4484528;31;34610;-66
2023/05/14 10:30:15;;;;;;;5.70;4.00;;;;;;;14.29;73.55;99545.38;4492517;31;33709;-66
2023/05/14 10:32:42;;;;;;;5.68;3.95;;;;;;;14.61;73.15;99550.47;4497513;31;34164;-65
2023/05/14 10:35:19;;;;;;;8.85;3.78;;;;;;;14.77;71.84;99566.03;4495717;31;34822;-66
2023/05/14 10:37:50;;;;;;;10.60;4.28;;;;;;;14.91;71.08;99570.09;4494871;31;34050;-68
2023/05/14 10:40:18;;;;;;;11.32;4.35;;;;;;;15.18;69.92;99561.19;4490584;31;34977;-65
2023/05/14 10:42:46;;;;;;;4.87;3.35;;;;;;;14.86;69.78;99558.87;4488771;31;35030;-68
2023/05/14 10:45:14;;;;;;;9.50;3.42;;;;;;;14.17;71.39;99547.38;4489135;31;33535;-66
2023/05/14 10:47:43;;;;;;;6.22;3.80;;;;;;;14.40;70.86;99560.53;4484864;31;33306;-66
2023/05/14 10:50:13;;;;;;;7.15;3.92;;;;;;;14.58;69.88;99558.00;4475041;31;34067;-66
2023/05/14 10:52:42;;;;;;;5.72;3.80;;;;;;;14.73;70.70;99552.97;4498613;31;34187;-66
2023/05/14 10:55:14;;;;;;;5.03;3.42;;;;;;;14.78;71.42;99550.72;4499808;31;34059;-66
2023/05/14 10:57:44;;;;;;;4.45;3.20;;;;;;;14.73;70.11;99556.50;4492165;31;33382;-66
2023/05/14 11:00:13;;;;;;;5.10;3.50;;;;;;;14.57;70.84;99554.41;4492777;31;33113;-69
2023/05/14 11:02:43;;;;;;;5.80;4.10;;;;;;;14.56;71.99;99557.28;4493333;31;34137;-65
2023/05/14 11:05:14;;;;;;;7.22;4.62;;;;;;;14.25;72.89;99553.88;4486260;31;34155;-66
2023/05/14 11:07:45;;;;;;;5.82;4.07;;;;;;;14.79;70.31;99549.69;4498031;31;33933;-66
2023/05/14 11:10:24;;;;;;;6.93;3.92;;;;;;;14.50;71.92;99537.13;4497319;31;34601;-66
2023/05/14 11:12:52;;;;;;;6.45;3.65;;;;;;;14.51;70.75;99532.59;4488163;31;34119;-67
2023/05/14 11:15:21;;;;;;;7.68;3.92;;;;;;;14.93;70.11;99533.06;4493380;31;34458;-68
2023/05/14 11:17:50;;;;;;;6.18;4.15;;;;;;;14.41;71.57;99530.78;4488593;31;33529;-69
2023/05/14 11:20:18;;;;;;;7.05;4.05;;;;;;;14.99;69.52;99537.00;4488117;31;33946;-67
2023/05/14 11:22:47;;;;;;;7.93;3.60;;;;;;;14.98;69.18;99540.69;4487511;31;34179;-66
2023/05/14 11:25:16;;;;;;;6.28;4.07;;;;;;;14.94;68.99;99534.75;4497150;31;33743;-66
2023/05/14 11:27:45;;;;;;;7.80;4.65;;;;;;;14.16;70.91;99531.38;4493456;31;33621;-68
2023/05/14 11:30:18;;;;;;;5.53;3.50;;;;;;;14.78;70.11;99539.94;4493005;31;33551;-67
2023/05/14 11:32:47;;;;;;;6.25;3.97;;;;;;;15.07;69.15;99534.44;4489669;31;34764;-66
2023/05/14 11:35:16;;;;;;;6.25;3.20;;;;;;;15.00;68.52;99533.34;4494572;31;34262;-66
2023/05/14 11:37:50;;;;;;;6.37;3.87;;;;;;;15.03;68.21;99536.56;4495804;31;32924;-68
2023/05/14 11:40:18;;;;;;;7.32;4.47;;;;;;;14.78;69.73;99542.63;4491823;31;33168;-66